Time;durP1;ratioP1;P1;durP2;ratioP2;P2;SDS_P1;SDS_P2;PMS_P1;PMS_P2;Temp;Humidity;BMP_temperature;BMP_pressure;BME280_temperature;BME280_humidity;BME280_pressure;Samples;Min_cycle;Max_cycle;Signal;HPM_P1;HPM_P2
2023/07/15 00:01:45;;;;;;;11.55;1.50;;;;;;;;;;5051592;28;20268;-72
2023/07/15 00:04:13;;;;;;;7.70;1.17;;;;;;;;;;5048806;28;20009;-72
2023/07/15 00:06:38;;;;;;;4.10;1.25;;;;;;;;;;5051411;28;20345;-72
2023/07/15 00:09:04;;;;;;;2.83;1.50;;;;;;;;;;5051968;28;20466;-72
2023/07/15 00:11:31;;;;;;;3.03;0.90;;;;;;;;;;5047717;28;20021;-72
2023/07/15 00:13:57;;;;;;;2.22;1.38;;;;;;;;;;5052837;28;20024;-72
2023/07/15 00:16:22;;;;;;;4.57;1.52;;;;;;;;;;5051016;28;20059;-72
2023/07/15 00:18:48;;;;;;;3.35;1.50;;;;;;;;;;5051040;28;20679;-72
2023/07/15 00:21:20;;;;;;;5.10;1.15;;;;;;;;;;5049389;28;20024;-72
2023/07/15 00:23:48;;;;;;;3.22;1.30;;;;;;;;;;5053630;28;20009;-72
2023/07/15 00:26:13;;;;;;;3.35;1.17;;;;;;;;;;5052275;28;20092;-72
2023/07/15 00:28:39;;;;;;;5.30;1.63;;;;;;;;;;5049682;28;20529;-72
2023/07/15 00:31:09;;;;;;;4.88;1.30;;;;;;;;;;5045723;28;20272;-72
2023/07/15 00:33:34;;;;;;;2.50;1.77;;;;;;;;;;5048869;28;20063;-72
2023/07/15 00:35:59;;;;;;;3.03;1.47;;;;;;;;;;5051798;28;20029;-72
2023/07/15 00:38:24;;;;;;;4.73;1.73;;;;;;;;;;5048900;28;20051;-72
2023/07/15 00:40:50;;;;;;;6.70;2.03;;;;;;;;;;5052082;28;20264;-72
2023/07/15 00:43:33;;;;;;;3.28;1.30;;;;;;;;;;5051203;28;20254;-72
2023/07/15 00:46:11;;;;;;;3.75;1.60;;;;;;;;;;5047832;28;20024;-72
2023/07/15 00:48:39;;;;;;;5.43;1.45;;;;;;;;;;5050264;28;20017;-72
2023/07/15 00:51:05;;;;;;;2.05;1.30;;;;;;;;;;5052072;28;20009;-72
2023/07/15 00:53:30;;;;;;;3.70;1.87;;;;;;;;;;5051797;28;20409;-72
2023/07/15 00:55:56;;;;;;;4.20;1.57;;;;;;;;;;5049978;28;20728;-72
2023/07/15 00:58:21;;;;;;;10.68;1.70;;;;;;;;;;5050336;28;20028;-72
2023/07/15 01:00:46;;;;;;;4.53;1.87;;;;;;;;;;5051699;28;20386;-72
2023/07/15 01:03:12;;;;;;;1.43;1.10;;;;;;;;;;5050855;28;20100;-72
2023/07/15 01:05:38;;;;;;;3.77;1.43;;;;;;;;;;5050342;28;20270;-72
2023/07/15 01:08:03;;;;;;;4.65;1.63;;;;;;;;;;5051822;28;20019;-72
2023/07/15 01:10:28;;;;;;;5.17;1.73;;;;;;;;;;5050958;28;20379;-72
2023/07/15 01:12:53;;;;;;;9.43;1.97;;;;;;;;;;5048370;28;20037;-72
2023/07/15 01:15:19;;;;;;;6.27;1.90;;;;;;;;;;5050560;28;20425;-72
2023/07/15 01:17:44;;;;;;;4.50;1.60;;;;;;;;;;5049933;28;20037;-72
2023/07/15 01:20:09;;;;;;;5.80;1.50;;;;;;;;;;5050543;28;20013;-72
2023/07/15 01:22:35;;;;;;;4.45;1.60;;;;;;;;;;5051634;28;20012;-72
2023/07/15 01:25:00;;;;;;;3.63;1.80;;;;;;;;;;5050780;28;20028;-72
2023/07/15 01:27:26;;;;;;;5.40;1.60;;;;;;;;;;5049464;28;20092;-72
2023/07/15 01:29:51;;;;;;;3.75;1.48;;;;;;;;;;5046993;28;20078;-72
2023/07/15 01:32:16;;;;;;;3.63;1.40;;;;;;;;;;5050598;28;20096;-72
2023/07/15 01:34:42;;;;;;;4.47;1.30;;;;;;;;;;5049693;28;20020;-72
2023/07/15 01:37:07;;;;;;;4.63;1.60;;;;;;;;;;5050469;28;20028;-72
2023/07/15 01:39:33;;;;;;;3.90;1.40;;;;;;;;;;5046982;28;20570;-72
2023/07/15 01:41:58;;;;;;;3.72;1.55;;;;;;;;;;5049584;28;20484;-72
2023/07/15 01:44:24;;;;;;;6.43;1.90;;;;;;;;;;5038846;28;20095;-72
2023/07/15 01:46:49;;;;;;;3.72;1.63;;;;;;;;;;5048215;28;20297;-72
2023/07/15 01:49:15;;;;;;;4.43;1.90;;;;;;;;;;5050059;28;20053;-72
2023/07/15 01:51:40;;;;;;;2.97;1.47;;;;;;;;;;5050517;28;20299;-72
2023/07/15 01:54:05;;;;;;;4.90;1.60;;;;;;;;;;5049701;28;20628;-72
2023/07/15 01:56:30;;;;;;;5.90;2.33;;;;;;;;;;5050110;28;20632;-72
2023/07/15 01:58:55;;;;;;;3.00;1.70;;;;;;;;;;5049468;28;20044;-72
2023/07/15 02:01:21;;;;;;;3.17;1.58;;;;;;;;;;5047528;28;20040;-72
2023/07/15 02:03:46;;;;;;;6.57;2.43;;;;;;;;;;5048313;28;20017;-72
2023/07/15 02:06:12;;;;;;;2.65;1.85;;;;;;;;;;5050043;28;20279;-72
2023/07/15 02:08:37;;;;;;;2.80;1.50;;;;;;;;;;5048907;28;20116;-72
2023/07/15 02:11:03;;;;;;;3.43;1.40;;;;;;;;;;5048909;28;20096;-72
2023/07/15 02:13:28;;;;;;;3.30;1.60;;;;;;;;;;5049407;28;20346;-72
2023/07/15 02:15:53;;;;;;;6.57;1.50;;;;;;;;;;5049404;28;20025;-72
2023/07/15 02:18:21;;;;;;;3.50;1.77;;;;;;;;;;5047555;28;20493;-72
2023/07/15 02:20:46;;;;;;;4.05;1.50;;;;;;;;;;5046970;28;20021;-72
2023/07/15 02:23:11;;;;;;;8.07;1.20;;;;;;;;;;5046654;28;20017;-72
2023/07/15 02:25:37;;;;;;;1.57;1.00;;;;;;;;;;5049459;28;20632;-72
2023/07/15 02:28:02;;;;;;;7.10;1.60;;;;;;;;;;5048578;28;20036;-72
2023/07/15 02:30:28;;;;;;;1.90;1.08;;;;;;;;;;5049725;28;20013;-72
2023/07/15 02:32:54;;;;;;;4.03;1.60;;;;;;;;;;5049550;28;20035;-72
2023/07/15 02:35:20;;;;;;;2.40;1.20;;;;;;;;;;5048472;28;20100;-72
2023/07/15 02:37:45;;;;;;;5.68;1.55;;;;;;;;;;5051110;28;20111;-72
2023/07/15 02:40:11;;;;;;;6.30;1.30;;;;;;;;;;5048642;28;20013;-72
2023/07/15 02:42:36;;;;;;;5.82;1.58;;;;;;;;;;5046256;28;20279;-72
2023/07/15 02:45:03;;;;;;;3.40;1.10;;;;;;;;;;5049488;28;20017;-72
2023/07/15 02:47:29;;;;;;;3.13;1.10;;;;;;;;;;5047771;28;20029;-72
2023/07/15 02:49:55;;;;;;;8.02;1.50;;;;;;;;;;5046276;28;20023;-72
2023/07/15 02:52:20;;;;;;;8.00;2.00;;;;;;;;;;5047135;28;20021;-72
2023/07/15 02:54:45;;;;;;;3.47;1.67;;;;;;;;;;5046175;28;20786;-72
2023/07/15 02:57:10;;;;;;;4.32;1.52;;;;;;;;;;5043141;28;20406;-72
2023/07/15 02:59:36;;;;;;;3.53;1.30;;;;;;;;;;5049365;28;20074;-72
2023/07/15 03:02:02;;;;;;;6.67;1.60;;;;;;;;;;5052437;28;20025;-72
2023/07/15 03:04:27;;;;;;;2.63;1.50;;;;;;;;;;5052600;28;20291;-72
2023/07/15 03:06:55;;;;;;;5.17;1.60;;;;;;;;;;5053194;28;20025;-72
2023/07/15 03:09:20;;;;;;;3.78;1.55;;;;;;;;;;5052539;28;20816;-72
2023/07/15 03:11:45;;;;;;;8.40;1.75;;;;;;;;;;5050702;28;20116;-72
2023/07/15 03:14:11;;;;;;;7.03;1.50;;;;;;;;;;5053133;28;20021;-72
2023/07/15 03:16:36;;;;;;;2.20;1.35;;;;;;;;;;5053162;28;20306;-72
2023/07/15 03:19:01;;;;;;;2.30;1.10;;;;;;;;;;5051898;28;20025;-72
2023/07/15 03:21:26;;;;;;;6.57;1.40;;;;;;;;;;5053811;28;20664;-72
2023/07/15 03:23:51;;;;;;;5.63;1.40;;;;;;;;;;5054683;28;20059;-72
2023/07/15 03:26:16;;;;;;;2.00;1.33;;;;;;;;;;5052679;28;20082;-72
2023/07/15 03:28:42;;;;;;;4.83;1.60;;;;;;;;;;5051312;28;20033;-72
2023/07/15 03:31:07;;;;;;;2.70;1.60;;;;;;;;;;5052836;28;20174;-72
2023/07/15 03:33:32;;;;;;;5.40;1.80;;;;;;;;;;5051493;28;20029;-72
2023/07/15 03:36:00;;;;;;;4.60;1.77;;;;;;;;;;5051221;28;20275;-72
2023/07/15 03:38:26;;;;;;;2.97;1.58;;;;;;;;;;5050466;28;20017;-72
2023/07/15 03:40:53;;;;;;;3.40;1.58;;;;;;;;;;5052467;28;20021;-72
2023/07/15 03:43:18;;;;;;;2.75;1.17;;;;;;;;;;5050737;28;20021;-71
2023/07/15 03:45:43;;;;;;;2.23;1.40;;;;;;;;;;5052194;28;20036;-72
2023/07/15 03:48:08;;;;;;;4.90;1.37;;;;;;;;;;5051808;28;20449;-72
2023/07/15 03:50:35;;;;;;;6.60;1.93;;;;;;;;;;5051206;28;20099;-72
2023/07/15 03:53:00;;;;;;;6.05;1.65;;;;;;;;;;5049228;28;20271;-72
2023/07/15 03:55:25;;;;;;;4.70;1.63;;;;;;;;;;5052479;28;20385;-72
2023/07/15 03:57:50;;;;;;;5.03;1.80;;;;;;;;;;5052300;28;20813;-72
2023/07/15 04:00:17;;;;;;;8.13;1.80;;;;;;;;;;5051887;28;20021;-72
2023/07/15 04:02:46;;;;;;;3.40;1.60;;;;;;;;;;5049130;28;20272;-72
2023/07/15 04:05:11;;;;;;;6.18;2.00;;;;;;;;;;5046986;28;20518;-72
2023/07/15 04:07:37;;;;;;;5.35;2.03;;;;;;;;;;5051838;28;20107;-72
2023/07/15 04:10:02;;;;;;;5.22;2.08;;;;;;;;;;5050894;28;20032;-71
2023/07/15 04:12:27;;;;;;;5.43;2.35;;;;;;;;;;5052649;28;20020;-72
2023/07/15 04:14:52;;;;;;;5.43;1.70;;;;;;;;;;5051951;28;20020;-72
2023/07/15 04:17:17;;;;;;;5.27;1.57;;;;;;;;;;5054160;28;20036;-72
2023/07/15 04:19:43;;;;;;;6.30;1.70;;;;;;;;;;5050158;28;20120;-72
2023/07/15 04:22:08;;;;;;;6.20;1.40;;;;;;;;;;5052550;28;20536;-72
2023/07/15 04:24:33;;;;;;;5.33;1.53;;;;;;;;;;5051485;28;20428;-72
2023/07/15 04:26:58;;;;;;;3.63;1.63;;;;;;;;;;5051953;28;20271;-72
2023/07/15 04:29:23;;;;;;;6.43;1.60;;;;;;;;;;5048991;28;20025;-72
2023/07/15 04:31:49;;;;;;;5.93;1.33;;;;;;;;;;5049186;28;20366;-72
2023/07/15 04:34:14;;;;;;;2.40;1.33;;;;;;;;;;5048813;28;20398;-72
2023/07/15 04:36:39;;;;;;;1.67;1.20;;;;;;;;;;5054128;28;20036;-72
2023/07/15 04:39:05;;;;;;;3.37;1.53;;;;;;;;;;5052243;28;20612;-72
2023/07/15 04:41:30;;;;;;;6.40;1.60;;;;;;;;;;5048331;28;20633;-72
2023/07/15 04:43:55;;;;;;;8.20;1.47;;;;;;;;;;5051837;28;20021;-72
2023/07/15 04:46:20;;;;;;;3.53;1.40;;;;;;;;;;5052290;28;20466;-72
2023/07/15 04:48:45;;;;;;;3.58;1.52;;;;;;;;;;5049586;28;20017;-71
2023/07/15 04:51:11;;;;;;;9.67;1.33;;;;;;;;;;5051655;28;20343;-72
2023/07/15 04:53:42;;;;;;;6.97;1.53;;;;;;;;;;5051969;28;20616;-71
2023/07/15 04:56:08;;;;;;;4.45;1.63;;;;;;;;;;5051060;28;20021;-72
2023/07/15 04:58:33;;;;;;;5.15;1.33;;;;;;;;;;5050517;28;20017;-72
2023/07/15 05:00:58;;;;;;;4.75;1.63;;;;;;;;;;5050805;28;20386;-72
2023/07/15 05:03:24;;;;;;;3.67;1.60;;;;;;;;;;5051521;28;20029;-72
2023/07/15 05:05:49;;;;;;;2.20;1.10;;;;;;;;;;5048077;28;20025;-72
2023/07/15 05:08:15;;;;;;;4.37;1.40;;;;;;;;;;5049943;28;20027;-72
2023/07/15 05:10:41;;;;;;;2.55;1.45;;;;;;;;;;5051223;28;20378;-72
2023/07/15 05:13:09;;;;;;;2.65;1.13;;;;;;;;;;5051114;28;20096;-72
2023/07/15 05:15:37;;;;;;;5.22;1.52;;;;;;;;;;5051085;28;20040;-72
2023/07/15 05:18:04;;;;;;;2.63;1.05;;;;;;;;;;5045858;28;20032;-72
2023/07/15 05:20:30;;;;;;;2.17;1.40;;;;;;;;;;5050639;28;20021;-72
2023/07/15 05:22:56;;;;;;;5.72;1.75;;;;;;;;;;5050146;28;20027;-72
2023/07/15 05:25:21;;;;;;;4.07;1.77;;;;;;;;;;5050226;28;20009;-72
2023/07/15 05:27:46;;;;;;;3.43;1.60;;;;;;;;;;5049393;28;20498;-72
2023/07/15 05:30:12;;;;;;;3.50;1.43;;;;;;;;;;5048127;28;20283;-72
2023/07/15 05:32:38;;;;;;;4.60;1.50;;;;;;;;;;5049163;28;20282;-72
2023/07/15 05:35:03;;;;;;;4.05;1.58;;;;;;;;;;5050065;28;20037;-72
2023/07/15 05:37:29;;;;;;;4.20;1.52;;;;;;;;;;5050096;28;20021;-72
2023/07/15 05:39:54;;;;;;;4.13;1.42;;;;;;;;;;5052652;28;20385;-72
2023/07/15 05:42:20;;;;;;;4.03;1.33;;;;;;;;;;5050339;28;20020;-72
2023/07/15 05:44:45;;;;;;;6.90;1.35;;;;;;;;;;5049525;28;20275;-72
2023/07/15 05:47:10;;;;;;;8.55;1.95;;;;;;;;;;5053493;28;20075;-72
2023/07/15 05:49:36;;;;;;;4.93;1.03;;;;;;;;;;5051043;28;20037;-72
2023/07/15 05:52:01;;;;;;;3.97;1.07;;;;;;;;;;5047540;28;20100;-72
2023/07/15 05:54:26;;;;;;;2.53;1.50;;;;;;;;;;5050185;28;20271;-72
2023/07/15 05:56:52;;;;;;;3.67;1.33;;;;;;;;;;5043016;28;20610;-72
2023/07/15 05:59:17;;;;;;;5.63;1.70;;;;;;;;;;5047389;28;20017;-72
2023/07/15 06:01:43;;;;;;;5.47;1.53;;;;;;;;;;5048184;28;20028;-72
2023/07/15 06:04:08;;;;;;;2.60;1.30;;;;;;;;;;5043671;28;20474;-72
2023/07/15 06:06:34;;;;;;;2.90;1.43;;;;;;;;;;5041580;28;20131;-72
2023/07/15 06:08:59;;;;;;;2.85;1.60;;;;;;;;;;5041636;28;20036;-72
2023/07/15 06:11:24;;;;;;;8.30;1.55;;;;;;;;;;5048005;28;20390;-72
2023/07/15 06:13:50;;;;;;;12.55;2.53;;;;;;;;;;5042646;28;20055;-72
2023/07/15 06:16:15;;;;;;;4.93;1.60;;;;;;;;;;5043346;28;20410;-72
2023/07/15 06:18:40;;;;;;;5.63;1.50;;;;;;;;;;5046946;28;20043;-72
2023/07/15 06:21:06;;;;;;;5.83;1.67;;;;;;;;;;5047426;28;20108;-72
2023/07/15 06:23:32;;;;;;;7.07;2.08;;;;;;;;;;5040514;28;20782;-72
2023/07/15 06:25:57;;;;;;;4.57;1.50;;;;;;;;;;5045466;28;20031;-72
2023/07/15 06:28:22;;;;;;;21.00;1.33;;;;;;;;;;5046384;28;20021;-72
2023/07/15 06:30:50;;;;;;;7.67;1.80;;;;;;;;;;5046531;28;20274;-72
2023/07/15 06:33:15;;;;;;;9.07;1.45;;;;;;;;;;5045098;28;20287;-72
2023/07/15 06:35:41;;;;;;;2.85;1.48;;;;;;;;;;5045196;28;20072;-72
2023/07/15 06:38:06;;;;;;;2.97;1.42;;;;;;;;;;5046021;28;20045;-73
2023/07/15 06:40:32;;;;;;;12.45;1.52;;;;;;;;;;5045574;28;20021;-72
2023/07/15 06:42:57;;;;;;;4.07;2.03;;;;;;;;;;5045862;28;20049;-72
2023/07/15 06:45:31;;;;;;;4.77;1.50;;;;;;;;;;5045814;28;20513;-73
2023/07/15 06:47:56;;;;;;;8.95;1.02;;;;;;;;;;5043366;28;20041;-73
2023/07/15 06:50:21;;;;;;;10.83;1.77;;;;;;;;;;5045953;28;20024;-72
2023/07/15 06:52:46;;;;;;;6.53;1.35;;;;;;;;;;5047642;28;20021;-72
2023/07/15 06:55:12;;;;;;;8.68;2.30;;;;;;;;;;5043542;28;22083;-73
2023/07/15 06:57:37;;;;;;;14.43;1.70;;;;;;;;;;5042999;28;20025;-73
2023/07/15 07:00:04;;;;;;;5.00;1.57;;;;;;;;;;5040757;28;20275;-72
2023/07/15 07:02:29;;;;;;;6.07;3.70;;;;;;;;;;5043968;28;20028;-72
2023/07/15 07:04:54;;;;;;;3.83;1.60;;;;;;;;;;5044615;28;20509;-72
2023/07/15 07:07:22;;;;;;;6.00;1.27;;;;;;;;;;5046665;28;20744;-72
2023/07/15 07:09:47;;;;;;;8.07;2.15;;;;;;;;;;5046390;28;20369;-72
2023/07/15 07:12:13;;;;;;;3.95;1.40;;;;;;;;;;5039736;28;20222;-73
2023/07/15 07:14:38;;;;;;;4.28;2.00;;;;;;;;;;5038088;28;20036;-72
2023/07/15 07:17:03;;;;;;;4.50;1.60;;;;;;;;;;5043847;28;20032;-73
2023/07/15 07:19:28;;;;;;;5.93;1.60;;;;;;;;;;5046242;28;20275;-72
2023/07/15 07:21:54;;;;;;;7.97;1.15;;;;;;;;;;5042237;28;20106;-73
2023/07/15 07:24:19;;;;;;;4.27;1.50;;;;;;;;;;5043257;28;20025;-72
2023/07/15 07:26:44;;;;;;;3.77;1.33;;;;;;;;;;5045592;28;20056;-72
2023/07/15 07:29:09;;;;;;;2.93;1.60;;;;;;;;;;5046514;28;20024;-73
2023/07/15 07:31:34;;;;;;;3.07;1.27;;;;;;;;;;5043022;28;20021;-72
2023/07/15 07:33:59;;;;;;;6.77;1.70;;;;;;;;;;5043435;28;20108;-72
2023/07/15 07:36:25;;;;;;;5.30;1.73;;;;;;;;;;5044765;28;20040;-72
2023/07/15 07:38:50;;;;;;;6.43;1.70;;;;;;;;;;5045654;28;20295;-73
2023/07/15 07:41:16;;;;;;;1.47;0.87;;;;;;;;;;5045793;28;20279;-73
2023/07/15 07:43:42;;;;;;;5.00;1.70;;;;;;;;;;5047196;28;20466;-72
2023/07/15 07:46:09;;;;;;;5.87;1.60;;;;;;;;;;5044556;28;20053;-72
2023/07/15 07:48:34;;;;;;;4.88;1.80;;;;;;;;;;5050806;28;20350;-72
2023/07/15 07:51:00;;;;;;;5.05;1.40;;;;;;;;;;5050093;28;20179;-72
2023/07/15 07:53:25;;;;;;;1.52;0.85;;;;;;;;;;5049124;28;20025;-73
2023/07/15 07:55:52;;;;;;;8.55;1.38;;;;;;;;;;5049633;28;20131;-72
2023/07/15 07:58:17;;;;;;;4.93;1.50;;;;;;;;;;5050482;28;20075;-72
2023/07/15 08:00:43;;;;;;;3.17;1.42;;;;;;;;;;5049713;28;20110;-72
2023/07/15 08:03:08;;;;;;;4.90;1.52;;;;;;;;;;5049124;28;20020;-73
2023/07/15 08:05:33;;;;;;;2.60;1.47;;;;;;;;;;5049088;28;20041;-73
2023/07/15 08:07:59;;;;;;;3.00;1.37;;;;;;;;;;5047956;28;20112;-73
2023/07/15 08:10:24;;;;;;;2.30;1.33;;;;;;;;;;5047246;28;20044;-73
2023/07/15 08:12:49;;;;;;;3.17;1.40;;;;;;;;;;5051010;28;20271;-72
2023/07/15 08:15:14;;;;;;;4.27;1.53;;;;;;;;;;5051162;28;20052;-72
2023/07/15 08:17:39;;;;;;;6.18;1.65;;;;;;;;;;5051413;28;20025;-73
2023/07/15 08:20:05;;;;;;;2.10;1.27;;;;;;;;;;5049925;28;22028;-73
2023/07/15 08:22:33;;;;;;;3.75;1.77;;;;;;;;;;5050782;28;20108;-72
2023/07/15 08:24:58;;;;;;;1.50;0.73;;;;;;;;;;5050358;28;20136;-73
2023/07/15 08:27:23;;;;;;;4.03;1.50;;;;;;;;;;5051862;28;20021;-72
2023/07/15 08:29:48;;;;;;;3.60;1.27;;;;;;;;;;5051958;28;20745;-72
2023/07/15 08:32:14;;;;;;;5.78;1.73;;;;;;;;;;5043537;28;20298;-72
2023/07/15 08:34:39;;;;;;;2.30;1.30;;;;;;;;;;5046604;28;20029;-72
2023/07/15 08:37:04;;;;;;;0.87;0.80;;;;;;;;;;5044979;28;20028;-72
2023/07/15 08:39:29;;;;;;;12.27;2.40;;;;;;;;;;5048381;28;20263;-72
2023/07/15 08:41:55;;;;;;;9.60;2.53;;;;;;;;;;5051953;28;20509;-73
2023/07/15 08:44:21;;;;;;;7.90;2.33;;;;;;;;;;5049380;28;20009;-72
2023/07/15 08:46:47;;;;;;;3.50;1.70;;;;;;;;;;5048230;28;20448;-72
2023/07/15 08:49:12;;;;;;;3.55;2.13;;;;;;;;;;5050062;28;20752;-72
2023/07/15 08:51:38;;;;;;;4.70;2.05;;;;;;;;;;5048886;28;20033;-72
2023/07/15 08:54:05;;;;;;;6.78;2.28;;;;;;;;;;5053358;28;20020;-72
2023/07/15 08:56:32;;;;;;;15.85;2.45;;;;;;;;;;5048911;28;20594;-72
2023/07/15 08:58:58;;;;;;;4.22;2.72;;;;;;;;;;5051058;28;20009;-72
2023/07/15 09:01:23;;;;;;;7.60;2.53;;;;;;;;;;5050573;28;20788;-72
2023/07/15 09:03:48;;;;;;;6.70;2.77;;;;;;;;;;5044947;28;20027;-71
2023/07/15 09:06:14;;;;;;;6.18;2.67;;;;;;;;;;5049477;28;20275;-71
2023/07/15 09:08:43;;;;;;;16.15;3.08;;;;;;;;;;5049182;28;20393;-72
2023/07/15 09:11:10;;;;;;;9.57;3.28;;;;;;;;;;5050490;28;20025;-71
2023/07/15 09:13:36;;;;;;;5.72;2.42;;;;;;;;;;5043632;28;20044;-71
2023/07/15 09:16:02;;;;;;;5.68;2.53;;;;;;;;;;5049009;28;20465;-71
2023/07/15 09:18:27;;;;;;;8.88;3.10;;;;;;;;;;5049231;28;20104;-71
2023/07/15 09:21:09;;;;;;;7.15;2.80;;;;;;;;;;5049435;28;20103;-71
2023/07/15 09:23:36;;;;;;;5.55;2.92;;;;;;;;;;5051493;28;20409;-71
2023/07/15 09:26:01;;;;;;;8.00;3.15;;;;;;;;;;5050507;28;20094;-71
2023/07/15 09:28:26;;;;;;;6.40;3.50;;;;;;;;;;5049624;28;20478;-71
2023/07/15 09:30:51;;;;;;;5.00;2.10;;;;;;;;;;5048450;28;20029;-71
2023/07/15 09:33:28;;;;;;;7.13;3.20;;;;;;;;;;5050155;28;20028;-71
2023/07/15 09:35:53;;;;;;;5.82;2.63;;;;;;;;;;5046272;28;20299;-71
2023/07/15 09:38:19;;;;;;;6.80;3.00;;;;;;;;;;5049195;28;20541;-71
2023/07/15 09:40:45;;;;;;;5.30;2.25;;;;;;;;;;5053071;28;20020;-70
2023/07/15 09:43:10;;;;;;;9.20;3.17;;;;;;;;;;5053799;28;20013;-71
2023/07/15 09:45:40;;;;;;;5.75;2.97;;;;;;;;;;5048158;28;20019;-70
2023/07/15 09:48:06;;;;;;;7.32;2.97;;;;;;;;;;5048625;28;20056;-70
2023/07/15 09:50:35;;;;;;;7.38;3.25;;;;;;;;;;5053163;28;20534;-70
2023/07/15 09:53:01;;;;;;;9.77;3.58;;;;;;;;;;5048396;28;20629;-70
2023/07/15 09:55:27;;;;;;;9.40;2.97;;;;;;;;;;5045111;28;20029;-70
2023/07/15 09:58:04;;;;;;;7.15;3.10;;;;;;;;;;5045043;28;20043;-71
2023/07/15 10:00:33;;;;;;;9.60;3.00;;;;;;;;;;5044310;28;20103;-70
2023/07/15 10:02:59;;;;;;;6.38;3.05;;;;;;;;;;5045706;28;20092;-70
2023/07/15 10:05:24;;;;;;;7.90;2.88;;;;;;;;;;5045817;28;22342;-70
2023/07/15 10:07:51;;;;;;;5.53;3.20;;;;;;;;;;5050163;28;20115;-71
2023/07/15 10:10:16;;;;;;;10.93;3.53;;;;;;;;;;5048594;28;20039;-71
2023/07/15 10:12:42;;;;;;;10.23;3.13;;;;;;;;;;5043802;28;20012;-71
2023/07/15 10:15:07;;;;;;;3.90;2.30;;;;;;;;;;5046809;28;20028;-71
2023/07/15 10:17:34;;;;;;;6.32;3.00;;;;;;;;;;5049287;28;20052;-71
2023/07/15 10:20:12;;;;;;;5.18;2.63;;;;;;;;;;5049927;28;20017;-70
2023/07/15 10:22:38;;;;;;;2.35;1.50;;;;;;;;;;5048396;28;20082;-71
2023/07/15 10:25:05;;;;;;;7.80;3.25;;;;;;;;;;5048491;28;20643;-70
2023/07/15 10:27:31;;;;;;;5.85;2.22;;;;;;;;;;5047434;28;20538;-70
2023/07/15 10:30:15;;;;;;;5.88;2.35;;;;;;;;;;5049067;28;20052;-71
2023/07/15 10:33:01;;;;;;;5.97;3.17;;;;;;;;;;5043705;28;20425;-71
2023/07/15 10:35:27;;;;;;;2.88;1.42;;;;;;;;;;5047759;28;20029;-72
2023/07/15 10:37:53;;;;;;;7.18;2.95;;;;;;;;;;5049399;28;20393;-72
2023/07/15 10:40:57;;;;;;;7.20;2.78;;;;;;;;;;5047300;28;20066;-70
2023/07/15 10:43:34;;;;;;;7.20;3.00;;;;;;;;;;4982699;28;20149;-71
2023/07/15 10:46:03;;;;;;;9.77;2.92;;;;;;;;;;4984484;28;20045;-70
2023/07/15 10:48:28;;;;;;;8.27;3.30;;;;;;;;;;5019300;28;20116;-70
2023/07/15 10:50:54;;;;;;;5.38;2.88;;;;;;;;;;5046687;28;20096;-70
2023/07/15 10:53:22;;;;;;;5.05;2.55;;;;;;;;;;5043763;28;20024;-70
2023/07/15 10:56:13;;;;;;;7.53;2.55;;;;;;;;;;5047740;28;20044;-70
2023/07/15 10:58:40;;;;;;;5.93;2.22;;;;;;;;;;5046525;28;20041;-70
2023/07/15 11:01:06;;;;;;;7.22;2.67;;;;;;;;;;5050185;28;20021;-71
2023/07/15 11:03:33;;;;;;;6.57;2.65;;;;;;;;;;5046693;28;20053;-70
2023/07/15 11:06:01;;;;;;;5.05;2.60;;;;;;;;;;5050247;28;20021;-70
2023/07/15 11:08:27;;;;;;;3.13;2.15;;;;;;;;;;5050104;28;20747;-70
2023/07/15 11:10:58;;;;;;;6.35;2.95;;;;;;;;;;5047179;28;20033;-71
2023/07/15 11:13:24;;;;;;;7.90;2.92;;;;;;;;;;5049428;28;20021;-70
2023/07/15 11:15:49;;;;;;;6.53;2.15;;;;;;;;;;5050110;28;20472;-70
2023/07/15 11:18:24;;;;;;;3.73;2.00;;;;;;;;;;5049515;28;20025;-71
2023/07/15 11:20:51;;;;;;;4.05;1.00;;;;;;;;;;5049137;28;20334;-70
2023/07/15 11:23:17;;;;;;;6.95;2.50;;;;;;;;;;5052934;28;20021;-71
2023/07/15 11:25:42;;;;;;;3.72;2.70;;;;;;;;;;5053240;28;20100;-70
2023/07/15 11:28:08;;;;;;;3.25;1.88;;;;;;;;;;5053112;28;20563;-70
2023/07/15 11:30:34;;;;;;;7.63;2.45;;;;;;;;;;5052536;28;20017;-70
2023/07/15 11:33:00;;;;;;;3.72;2.20;;;;;;;;;;5053603;28;20028;-70
2023/07/15 11:35:25;;;;;;;4.53;2.47;;;;;;;;;;5053770;28;20025;-70
2023/07/15 11:37:50;;;;;;;5.93;3.10;;;;;;;;;;5052587;28;20640;-70
2023/07/15 11:40:16;;;;;;;7.63;2.40;;;;;;;;;;5051286;28;20079;-70
2023/07/15 11:42:41;;;;;;;5.13;2.97;;;;;;;;;;5052286;28;20255;-70
2023/07/15 11:45:07;;;;;;;6.63;3.22;;;;;;;;;;5053391;28;20021;-70
2023/07/15 11:47:35;;;;;;;10.90;3.47;;;;;;;;;;5053448;28;20028;-70
2023/07/15 11:50:00;;;;;;;6.28;1.88;;;;;;;;;;5053345;28;20021;-70
2023/07/15 11:52:26;;;;;;;9.20;3.38;;;;;;;;;;5052117;28;20021;-70
2023/07/15 11:54:52;;;;;;;4.73;2.90;;;;;;;;;;5050253;28;20036;-70
2023/07/15 11:57:26;;;;;;;5.03;3.25;;;;;;;;;;5053080;28;20287;-70
2023/07/15 11:59:51;;;;;;;7.05;3.45;;;;;;;;;;5053514;28;20017;-70
2023/07/15 12:02:17;;;;;;;13.53;3.53;;;;;;;;;;5053342;28;20024;-70
2023/07/15 12:04:42;;;;;;;6.53;2.90;;;;;;;;;;5053320;28;20092;-70
2023/07/15 12:07:07;;;;;;;5.13;3.13;;;;;;;;;;5051804;28;20021;-70
2023/07/15 12:09:33;;;;;;;2.33;1.20;;;;;;;;;;5052313;28;20299;-70
2023/07/15 12:11:59;;;;;;;6.40;3.60;;;;;;;;;;5052514;28;20017;-70
2023/07/15 12:14:25;;;;;;;7.68;4.25;;;;;;;;;;5052798;28;20425;-70
2023/07/15 12:16:53;;;;;;;9.23;3.65;;;;;;;;;;5052919;28;20029;-70
2023/07/15 12:19:18;;;;;;;6.97;3.88;;;;;;;;;;5052943;28;20017;-70
2023/07/15 12:21:44;;;;;;;12.70;3.28;;;;;;;;;;5052070;28;20025;-70
2023/07/15 12:24:09;;;;;;;6.70;3.58;;;;;;;;;;5051377;28;20040;-70
2023/07/15 12:26:34;;;;;;;11.07;3.63;;;;;;;;;;5047928;28;20045;-71
2023/07/15 12:28:59;;;;;;;9.00;3.20;;;;;;;;;;5052917;28;20264;-70
2023/07/15 12:31:24;;;;;;;5.97;3.53;;;;;;;;;;5052690;28;20025;-70
2023/07/15 12:33:50;;;;;;;6.10;3.63;;;;;;;;;;5052452;28;20016;-70
2023/07/15 12:36:15;;;;;;;5.93;3.55;;;;;;;;;;5051641;28;20462;-70
2023/07/15 12:38:41;;;;;;;6.03;3.38;;;;;;;;;;5050004;28;20413;-70
2023/07/15 12:41:07;;;;;;;6.53;3.80;;;;;;;;;;5051617;28;20041;-69
2023/07/15 12:43:32;;;;;;;5.82;3.33;;;;;;;;;;5052156;28;20403;-70
2023/07/15 12:45:58;;;;;;;6.88;3.15;;;;;;;;;;5052528;28;20092;-69
2023/07/15 12:48:23;;;;;;;10.75;6.30;;;;;;;;;;5052433;28;20158;-69
2023/07/15 12:50:48;;;;;;;5.83;3.60;;;;;;;;;;5051399;28;20359;-70
2023/07/15 12:53:14;;;;;;;8.67;3.90;;;;;;;;;;5050348;28;20060;-69
2023/07/15 12:55:39;;;;;;;10.25;4.75;;;;;;;;;;5050320;28;20355;-70
2023/07/15 12:58:04;;;;;;;9.40;4.20;;;;;;;;;;5052161;28;20043;-69
2023/07/15 13:00:29;;;;;;;6.17;3.37;;;;;;;;;;5052130;28;20259;-69
2023/07/15 13:02:55;;;;;;;17.33;8.90;;;;;;;;;;5048172;28;20104;-69
2023/07/15 13:05:20;;;;;;;9.88;5.13;;;;;;;;;;5051811;28;20809;-69
2023/07/15 13:07:45;;;;;;;6.90;4.10;;;;;;;;;;5048013;28;20048;-70
2023/07/15 13:10:11;;;;;;;8.03;4.73;;;;;;;;;;5050039;28;20044;-70
2023/07/15 13:12:36;;;;;;;9.98;3.88;;;;;;;;;;5051605;28;20112;-70
2023/07/15 13:15:02;;;;;;;78.83;28.93;;;;;;;;;;5052028;28;20016;-70
2023/07/15 13:17:27;;;;;;;14.77;6.35;;;;;;;;;;5051736;28;21065;-70
2023/07/15 13:19:52;;;;;;;8.25;4.75;;;;;;;;;;5052054;28;20088;-70
2023/07/15 13:22:17;;;;;;;13.03;4.57;;;;;;;;;;5049042;28;20071;-70
2023/07/15 13:24:43;;;;;;;11.07;6.33;;;;;;;;;;5048695;28;20137;-70
2023/07/15 13:27:08;;;;;;;19.15;7.30;;;;;;;;;;5048580;28;20359;-70
2023/07/15 13:29:33;;;;;;;15.80;5.93;;;;;;;;;;5045824;28;20056;-70
2023/07/15 13:31:58;;;;;;;12.83;5.03;;;;;;;;;;5043954;28;20267;-69
2023/07/15 13:34:23;;;;;;;13.03;5.53;;;;;;;;;;5048013;28;20928;-70
2023/07/15 13:36:48;;;;;;;11.70;3.90;;;;;;;;;;5050310;28;20279;-70
2023/07/15 13:39:33;;;;;;;9.87;3.93;;;;;;;;;;5044870;28;20029;-70
2023/07/15 13:41:58;;;;;;;7.50;3.63;;;;;;;;;;5045371;28;20028;-70
2023/07/15 13:44:24;;;;;;;4.63;2.10;;;;;;;;;;5043812;28;21339;-70
2023/07/15 13:46:49;;;;;;;16.05;4.30;;;;;;;;;;5047189;28;20021;-70
2023/07/15 13:49:14;;;;;;;11.23;3.73;;;;;;;;;;5044093;28;20098;-70
2023/07/15 13:51:39;;;;;;;9.90;3.50;;;;;;;;;;5046140;28;20354;-69
2023/07/15 13:54:04;;;;;;;7.00;3.80;;;;;;;;;;5045202;28;20075;-70
2023/07/15 13:56:29;;;;;;;5.97;3.07;;;;;;;;;;5048140;28;20024;-69
2023/07/15 13:58:55;;;;;;;5.50;2.93;;;;;;;;;;5044221;28;20491;-70
2023/07/15 14:01:20;;;;;;;7.50;3.70;;;;;;;;;;5047489;28;20263;-69
2023/07/15 14:03:45;;;;;;;6.22;3.90;;;;;;;;;;5049346;28;20800;-69
2023/07/15 14:06:10;;;;;;;7.47;3.43;;;;;;;;;;5048785;28;20037;-70
2023/07/15 14:08:37;;;;;;;8.67;3.53;;;;;;;;;;5046942;28;20120;-69
2023/07/15 14:11:02;;;;;;;7.72;3.03;;;;;;;;;;5049145;28;20135;-70
2023/07/15 14:13:28;;;;;;;5.55;2.78;;;;;;;;;;5042929;28;20147;-69
2023/07/15 14:15:53;;;;;;;9.53;3.87;;;;;;;;;;5043741;28;20100;-70
2023/07/15 14:18:18;;;;;;;6.23;3.40;;;;;;;;;;5044647;28;20279;-70
2023/07/15 14:20:43;;;;;;;19.50;8.57;;;;;;;;;;5044843;28;20749;-70
2023/07/15 14:23:09;;;;;;;21.90;8.97;;;;;;;;;;5042510;28;20205;-70
2023/07/15 14:25:34;;;;;;;18.77;8.17;;;;;;;;;;5047886;28;20029;-69
2023/07/15 14:27:59;;;;;;;30.00;13.23;;;;;;;;;;5050299;28;20290;-70
2023/07/15 14:30:24;;;;;;;16.00;9.47;;;;;;;;;;5047061;28;20271;-70
2023/07/15 14:32:49;;;;;;;7.93;3.80;;;;;;;;;;5044502;28;20287;-70
2023/07/15 14:35:14;;;;;;;6.63;3.47;;;;;;;;;;5047692;28;20309;-69